sensor_id;sensor_type;location;lat;lon;timestamp;pressure;altitude;pressure_sealevel;temperature;humidity
11878;BME280;5998;42.676;23.268;2023-01-29T00:00:02;94920.94;;;1.75;100.00
11878;BME280;5998;42.676;23.268;2023-01-29T00:02:35;94918.44;;;2.08;100.00
11878;BME280;5998;42.676;23.268;2023-01-29T00:05:03;94922.72;;;1.80;100.00
11878;BME280;5998;42.676;23.268;2023-01-29T00:07:30;94928.09;;;1.99;100.00
11878;BME280;5998;42.676;23.268;2023-01-29T00:09:57;94922.22;;;2.02;100.00
11878;BME280;5998;42.676;23.268;2023-01-29T00:12:23;94934.53;;;1.93;100.00
11878;BME280;5998;42.676;23.268;2023-01-29T00:14:50;94933.84;;;1.82;100.00
11878;BME280;5998;42.676;23.268;2023-01-29T00:17:17;94932.97;;;1.92;100.00
11878;BME280;5998;42.676;23.268;2023-01-29T00:19:45;94932.22;;;2.10;100.00
11878;BME280;5998;42.676;23.268;2023-01-29T00:22:12;94933.28;;;1.85;100.00
11878;BME280;5998;42.676;23.268;2023-01-29T00:24:38;94937.97;;;1.93;100.00
11878;BME280;5998;42.676;23.268;2023-01-29T00:27:05;94938.78;;;1.94;100.00
11878;BME280;5998;42.676;23.268;2023-01-29T00:29:32;94930.75;;;2.22;100.00
11878;BME280;5998;42.676;23.268;2023-01-29T00:31:58;94938.28;;;2.34;100.00
11878;BME280;5998;42.676;23.268;2023-01-29T00:34:25;94941.09;;;2.24;100.00
11878;BME280;5998;42.676;23.268;2023-01-29T00:36:53;94936.06;;;1.99;100.00
11878;BME280;5998;42.676;23.268;2023-01-29T00:39:33;94935.16;;;1.85;100.00
11878;BME280;5998;42.676;23.268;2023-01-29T00:42:04;94935.38;;;1.88;100.00
11878;BME280;5998;42.676;23.268;2023-01-29T00:44:48;94947.06;;;2.34;100.00
11878;BME280;5998;42.676;23.268;2023-01-29T00:47:24;94938.66;;;1.80;100.00
11878;BME280;5998;42.676;23.268;2023-01-29T00:49:57;94938.94;;;1.78;100.00
11878;BME280;5998;42.676;23.268;2023-01-29T00:52:25;94936.41;;;1.35;100.00
11878;BME280;5998;42.676;23.268;2023-01-29T00:54:53;94940.41;;;1.32;100.00
11878;BME280;5998;42.676;23.268;2023-01-29T00:57:20;94941.78;;;1.30;100.00
11878;BME280;5998;42.676;23.268;2023-01-29T00:59:47;94952.72;;;1.52;100.00
11878;BME280;5998;42.676;23.268;2023-01-29T01:02:13;94947.00;;;1.68;100.00
11878;BME280;5998;42.676;23.268;2023-01-29T01:04:58;94938.59;;;1.61;100.00
11878;BME280;5998;42.676;23.268;2023-01-29T01:07:28;94938.53;;;1.66;100.00
11878;BME280;5998;42.676;23.268;2023-01-29T01:09:55;94954.06;;;1.49;100.00
11878;BME280;5998;42.676;23.268;2023-01-29T01:12:39;94951.72;;;1.48;100.00
11878;BME280;5998;42.676;23.268;2023-01-29T01:15:07;94944.88;;;1.42;100.00
11878;BME280;5998;42.676;23.268;2023-01-29T01:17:34;94940.91;;;1.39;100.00
11878;BME280;5998;42.676;23.268;2023-01-29T01:20:00;94939.06;;;1.40;100.00
11878;BME280;5998;42.676;23.268;2023-01-29T01:22:28;94939.78;;;1.45;100.00
11878;BME280;5998;42.676;23.268;2023-01-29T01:24:56;94930.56;;;1.38;100.00
11878;BME280;5998;42.676;23.268;2023-01-29T01:27:23;94944.13;;;1.36;100.00
11878;BME280;5998;42.676;23.268;2023-01-29T01:29:50;94932.94;;;1.39;100.00
11878;BME280;5998;42.676;23.268;2023-01-29T01:32:16;94939.59;;;1.37;100.00
11878;BME280;5998;42.676;23.268;2023-01-29T01:34:43;94941.38;;;1.46;100.00
11878;BME280;5998;42.676;23.268;2023-01-29T01:37:10;94945.13;;;1.40;100.00
11878;BME280;5998;42.676;23.268;2023-01-29T01:39:38;94945.72;;;1.37;100.00
11878;BME280;5998;42.676;23.268;2023-01-29T01:42:08;94948.63;;;1.36;100.00
11878;BME280;5998;42.676;23.268;2023-01-29T01:45:05;94935.09;;;1.37;100.00
11878;BME280;5998;42.676;23.268;2023-01-29T01:47:39;94936.50;;;1.58;100.00
11878;BME280;5998;42.676;23.268;2023-01-29T01:50:11;94944.81;;;1.47;100.00
11878;BME280;5998;42.676;23.268;2023-01-29T01:52:45;94945.88;;;1.46;100.00
11878;BME280;5998;42.676;23.268;2023-01-29T01:55:17;94944.66;;;1.33;100.00
11878;BME280;5998;42.676;23.268;2023-01-29T01:57:47;94955.84;;;1.30;100.00
11878;BME280;5998;42.676;23.268;2023-01-29T02:00:17;94950.25;;;1.32;100.00
11878;BME280;5998;42.676;23.268;2023-01-29T02:02:45;94955.91;;;1.20;100.00
11878;BME280;5998;42.676;23.268;2023-01-29T02:05:32;94959.63;;;1.19;100.00
11878;BME280;5998;42.676;23.268;2023-01-29T02:08:20;94957.56;;;1.11;100.00
11878;BME280;5998;42.676;23.268;2023-01-29T02:11:09;94959.72;;;1.09;100.00
11878;BME280;5998;42.676;23.268;2023-01-29T02:13:35;94966.38;;;1.06;100.00
11878;BME280;5998;42.676;23.268;2023-01-29T02:16:03;94954.56;;;1.23;100.00
11878;BME280;5998;42.676;23.268;2023-01-29T02:18:29;94956.22;;;1.13;100.00
11878;BME280;5998;42.676;23.268;2023-01-29T02:21:20;94961.69;;;1.27;100.00
11878;BME280;5998;42.676;23.268;2023-01-29T02:24:15;94955.31;;;1.28;100.00
11878;BME280;5998;42.676;23.268;2023-01-29T02:26:59;94962.31;;;1.14;100.00
11878;BME280;5998;42.676;23.268;2023-01-29T02:29:35;94961.69;;;1.27;100.00
11878;BME280;5998;42.676;23.268;2023-01-29T02:32:17;94968.38;;;1.19;100.00
11878;BME280;5998;42.676;23.268;2023-01-29T02:34:54;94971.03;;;1.19;100.00
11878;BME280;5998;42.676;23.268;2023-01-29T02:37:51;94964.81;;;1.00;100.00
11878;BME280;5998;42.676;23.268;2023-01-29T02:40:25;94969.19;;;1.20;100.00
11878;BME280;5998;42.676;23.268;2023-01-29T02:43:05;94970.56;;;1.12;100.00
11878;BME280;5998;42.676;23.268;2023-01-29T02:45:42;94976.78;;;1.32;100.00
11878;BME280;5998;42.676;23.268;2023-01-29T02:48:16;94982.84;;;1.32;100.00
11878;BME280;5998;42.676;23.268;2023-01-29T02:50:47;94993.47;;;1.37;100.00
11878;BME280;5998;42.676;23.268;2023-01-29T02:53:17;94972.03;;;1.29;100.00
11878;BME280;5998;42.676;23.268;2023-01-29T02:55:51;94989.13;;;1.46;100.00
11878;BME280;5998;42.676;23.268;2023-01-29T02:58:26;94986.25;;;1.38;100.00
11878;BME280;5998;42.676;23.268;2023-01-29T03:01:00;94982.75;;;1.47;100.00
11878;BME280;5998;42.676;23.268;2023-01-29T03:03:32;94978.00;;;1.44;100.00
11878;BME280;5998;42.676;23.268;2023-01-29T03:06:03;94981.41;;;1.50;100.00
11878;BME280;5998;42.676;23.268;2023-01-29T03:08:35;94984.06;;;1.50;100.00
11878;BME280;5998;42.676;23.268;2023-01-29T03:11:09;94980.75;;;1.63;100.00
11878;BME280;5998;42.676;23.268;2023-01-29T03:13:41;94978.09;;;1.63;100.00
11878;BME280;5998;42.676;23.268;2023-01-29T03:16:16;94981.56;;;1.63;100.00
11878;BME280;5998;42.676;23.268;2023-01-29T03:18:48;94979.78;;;1.54;100.00
11878;BME280;5998;42.676;23.268;2023-01-29T03:21:22;94985.25;;;1.62;100.00
11878;BME280;5998;42.676;23.268;2023-01-29T03:24:09;94995.66;;;1.59;100.00
11878;BME280;5998;42.676;23.268;2023-01-29T03:26:57;94985.88;;;1.54;100.00
11878;BME280;5998;42.676;23.268;2023-01-29T03:29:46;94993.28;;;1.57;100.00
11878;BME280;5998;42.676;23.268;2023-01-29T03:32:33;94987.78;;;1.49;100.00
11878;BME280;5998;42.676;23.268;2023-01-29T03:35:05;94990.97;;;1.51;100.00
11878;BME280;5998;42.676;23.268;2023-01-29T03:37:38;94979.66;;;1.35;100.00
11878;BME280;5998;42.676;23.268;2023-01-29T03:40:07;94984.91;;;1.40;100.00
11878;BME280;5998;42.676;23.268;2023-01-29T03:42:43;94987.78;;;1.49;100.00
11878;BME280;5998;42.676;23.268;2023-01-29T03:45:19;94967.78;;;1.28;100.00
11878;BME280;5998;42.676;23.268;2023-01-29T03:47:52;94984.34;;;1.48;100.00
11878;BME280;5998;42.676;23.268;2023-01-29T03:50:31;94986.09;;;1.58;100.00
11878;BME280;5998;42.676;23.268;2023-01-29T03:53:04;94984.50;;;1.62;100.00
11878;BME280;5998;42.676;23.268;2023-01-29T03:55:36;94978.75;;;1.50;100.00
11878;BME280;5998;42.676;23.268;2023-01-29T03:58:14;94982.59;;;1.62;100.00
11878;BME280;5998;42.676;23.268;2023-01-29T04:00:51;94987.34;;;1.65;100.00
11878;BME280;5998;42.676;23.268;2023-01-29T04:03:22;94983.13;;;1.64;100.00
11878;BME280;5998;42.676;23.268;2023-01-29T04:05:54;94981.50;;;1.68;100.00
11878;BME280;5998;42.676;23.268;2023-01-29T04:08:31;94993.75;;;1.64;100.00
11878;BME280;5998;42.676;23.268;2023-01-29T04:11:04;94989.25;;;1.60;100.00
11878;BME280;5998;42.676;23.268;2023-01-29T04:13:35;94988.31;;;1.51;100.00
11878;BME280;5998;42.676;23.268;2023-01-29T04:16:03;94990.56;;;1.62;100.00
11878;BME280;5998;42.676;23.268;2023-01-29T04:18:33;94998.31;;;1.59;100.00
11878;BME280;5998;42.676;23.268;2023-01-29T04:21:00;95001.03;;;1.54;100.00
11878;BME280;5998;42.676;23.268;2023-01-29T04:23:27;94996.97;;;1.61;100.00
11878;BME280;5998;42.676;23.268;2023-01-29T04:26:06;94998.31;;;1.59;100.00
11878;BME280;5998;42.676;23.268;2023-01-29T04:28:49;94995.09;;;1.62;100.00
11878;BME280;5998;42.676;23.268;2023-01-29T04:31:20;95001.44;;;1.66;100.00
11878;BME280;5998;42.676;23.268;2023-01-29T04:33:53;95002.13;;;1.48;100.00
11878;BME280;5998;42.676;23.268;2023-01-29T04:36:32;95002.78;;;1.63;100.00
11878;BME280;5998;42.676;23.268;2023-01-29T04:39:06;95005.00;;;1.51;100.00
11878;BME280;5998;42.676;23.268;2023-01-29T04:41:41;95005.75;;;1.57;100.00
11878;BME280;5998;42.676;23.268;2023-01-29T04:44:16;95006.28;;;1.59;100.00
11878;BME280;5998;42.676;23.268;2023-01-29T04:46:47;95003.06;;;1.62;100.00
11878;BME280;5998;42.676;23.268;2023-01-29T04:49:23;95001.75;;;1.59;100.00
11878;BME280;5998;42.676;23.268;2023-01-29T04:52:00;95002.88;;;1.53;100.00
11878;BME280;5998;42.676;23.268;2023-01-29T04:54:39;95010.22;;;1.61;100.00
11878;BME280;5998;42.676;23.268;2023-01-29T04:57:13;95008.38;;;1.62;100.00
11878;BME280;5998;42.676;23.268;2023-01-29T04:59:45;95005.22;;;1.55;100.00
11878;BME280;5998;42.676;23.268;2023-01-29T05:02:14;95007.66;;;1.51;100.00
11878;BME280;5998;42.676;23.268;2023-01-29T05:04:43;94995.78;;;1.44;100.00
11878;BME280;5998;42.676;23.268;2023-01-29T05:07:13;95006.59;;;1.52;100.00
11878;BME280;5998;42.676;23.268;2023-01-29T05:09:43;95010.88;;;1.48;100.00
11878;BME280;5998;42.676;23.268;2023-01-29T05:12:12;95014.09;;;1.40;100.00
11878;BME280;5998;42.676;23.268;2023-01-29T05:14:41;95012.69;;;1.53;100.00
11878;BME280;5998;42.676;23.268;2023-01-29T05:17:14;95011.44;;;1.40;100.00
11878;BME280;5998;42.676;23.268;2023-01-29T05:19:43;95005.03;;;1.46;100.00
11878;BME280;5998;42.676;23.268;2023-01-29T05:22:11;95014.63;;;1.42;100.00
11878;BME280;5998;42.676;23.268;2023-01-29T05:24:39;95018.31;;;1.46;100.00
11878;BME280;5998;42.676;23.268;2023-01-29T05:27:10;95016.78;;;1.35;100.00
11878;BME280;5998;42.676;23.268;2023-01-29T05:29:58;95018.84;;;1.48;100.00
11878;BME280;5998;42.676;23.268;2023-01-29T05:32:24;95017.28;;;1.42;100.00
11878;BME280;5998;42.676;23.268;2023-01-29T05:34:52;95026.81;;;1.48;100.00
11878;BME280;5998;42.676;23.268;2023-01-29T05:37:19;95028.84;;;1.56;100.00
11878;BME280;5998;42.676;23.268;2023-01-29T05:39:46;95029.56;;;1.67;100.00
11878;BME280;5998;42.676;23.268;2023-01-29T05:42:12;95034.66;;;1.58;100.00
11878;BME280;5998;42.676;23.268;2023-01-29T05:44:39;95030.47;;;1.52;100.00
11878;BME280;5998;42.676;23.268;2023-01-29T05:47:06;95033.91;;;1.53;100.00
11878;BME280;5998;42.676;23.268;2023-01-29T05:49:33;95037.88;;;1.55;100.00
11878;BME280;5998;42.676;23.268;2023-01-29T05:52:01;95041.09;;;1.52;100.00
11878;BME280;5998;42.676;23.268;2023-01-29T05:54:27;95040.00;;;1.19;100.00
11878;BME280;5998;42.676;23.268;2023-01-29T05:56:54;95048.78;;;1.15;100.00
11878;BME280;5998;42.676;23.268;2023-01-29T05:59:21;95025.72;;;1.10;100.00
11878;BME280;5998;42.676;23.268;2023-01-29T06:01:48;95042.06;;;1.28;100.00
11878;BME280;5998;42.676;23.268;2023-01-29T06:04:14;95054.78;;;1.31;100.00
11878;BME280;5998;42.676;23.268;2023-01-29T06:06:41;95050.31;;;1.26;100.00
11878;BME280;5998;42.676;23.268;2023-01-29T06:09:10;95052.69;;;1.23;100.00
11878;BME280;5998;42.676;23.268;2023-01-29T06:11:37;95053.75;;;1.22;100.00
11878;BME280;5998;42.676;23.268;2023-01-29T06:14:03;95058.81;;;1.23;100.00
11878;BME280;5998;42.676;23.268;2023-01-29T06:16:30;95063.81;;;1.25;100.00
11878;BME280;5998;42.676;23.268;2023-01-29T06:18:57;95066.91;;;0.98;100.00
11878;BME280;5998;42.676;23.268;2023-01-29T06:21:24;95060.75;;;1.02;100.00
11878;BME280;5998;42.676;23.268;2023-01-29T06:23:51;95078.00;;;1.00;100.00
11878;BME280;5998;42.676;23.268;2023-01-29T06:26:19;95080.19;;;0.93;100.00
11878;BME280;5998;42.676;23.268;2023-01-29T06:28:47;95082.50;;;1.04;100.00
11878;BME280;5998;42.676;23.268;2023-01-29T06:31:14;95090.66;;;1.18;100.00
11878;BME280;5998;42.676;23.268;2023-01-29T06:33:41;95092.28;;;1.09;100.00
11878;BME280;5998;42.676;23.268;2023-01-29T06:36:08;95091.97;;;1.21;100.00
11878;BME280;5998;42.676;23.268;2023-01-29T06:38:35;95100.91;;;1.30;100.00
11878;BME280;5998;42.676;23.268;2023-01-29T06:41:08;95099.22;;;1.49;100.00
11878;BME280;5998;42.676;23.268;2023-01-29T06:43:36;95096.09;;;1.42;100.00
11878;BME280;5998;42.676;23.268;2023-01-29T06:46:03;95098.66;;;1.52;100.00
11878;BME280;5998;42.676;23.268;2023-01-29T06:48:29;95097.31;;;1.54;100.00
11878;BME280;5998;42.676;23.268;2023-01-29T06:51:01;95105.19;;;1.69;100.00
11878;BME280;5998;42.676;23.268;2023-01-29T06:53:28;95102.19;;;1.76;100.00
11878;BME280;5998;42.676;23.268;2023-01-29T06:55:54;95101.44;;;1.75;100.00
11878;BME280;5998;42.676;23.268;2023-01-29T06:58:21;95101.44;;;1.75;100.00
11878;BME280;5998;42.676;23.268;2023-01-29T07:00:49;95105.50;;;1.97;100.00
11878;BME280;5998;42.676;23.268;2023-01-29T07:03:16;95086.91;;;1.97;100.00
11878;BME280;5998;42.676;23.268;2023-01-29T07:05:43;95104.59;;;2.06;100.00
11878;BME280;5998;42.676;23.268;2023-01-29T07:08:15;95102.03;;;1.96;100.00
11878;BME280;5998;42.676;23.268;2023-01-29T07:10:41;95109.16;;;1.72;100.00
11878;BME280;5998;42.676;23.268;2023-01-29T07:13:08;95116.31;;;1.71;100.00
11878;BME280;5998;42.676;23.268;2023-01-29T07:15:35;95119.63;;;1.92;100.00
11878;BME280;5998;42.676;23.268;2023-01-29T07:18:03;95117.72;;;1.93;100.00
11878;BME280;5998;42.676;23.268;2023-01-29T07:20:37;95112.66;;;1.96;100.00
11878;BME280;5998;42.676;23.268;2023-01-29T07:23:04;95123.63;;;1.85;100.00
11878;BME280;5998;42.676;23.268;2023-01-29T07:25:32;95124.53;;;1.75;100.00
11878;BME280;5998;42.676;23.268;2023-01-29T07:27:59;95115.63;;;1.56;100.00
11878;BME280;5998;42.676;23.268;2023-01-29T07:30:26;95139.72;;;1.59;100.00
11878;BME280;5998;42.676;23.268;2023-01-29T07:32:52;95134.69;;;1.63;100.00
11878;BME280;5998;42.676;23.268;2023-01-29T07:35:21;95133.88;;;1.62;100.00
11878;BME280;5998;42.676;23.268;2023-01-29T07:37:48;95140.63;;;1.89;100.00
11878;BME280;5998;42.676;23.268;2023-01-29T07:40:15;95139.97;;;2.02;100.00
11878;BME280;5998;42.676;23.268;2023-01-29T07:42:41;95151.38;;;2.36;100.00
11878;BME280;5998;42.676;23.268;2023-01-29T07:45:09;95131.84;;;2.22;100.00
11878;BME280;5998;42.676;23.268;2023-01-29T07:47:36;95129.94;;;2.27;100.00
11878;BME280;5998;42.676;23.268;2023-01-29T07:50:04;95139.34;;;2.15;100.00
11878;BME280;5998;42.676;23.268;2023-01-29T07:52:32;95141.25;;;2.38;100.00
11878;BME280;5998;42.676;23.268;2023-01-29T07:54:59;95135.16;;;2.04;100.00
11878;BME280;5998;42.676;23.268;2023-01-29T07:57:26;95141.97;;;1.86;100.00
11878;BME280;5998;42.676;23.268;2023-01-29T07:59:52;95147.00;;;2.21;100.00
11878;BME280;5998;42.676;23.268;2023-01-29T08:02:19;95144.13;;;2.13;100.00
11878;BME280;5998;42.676;23.268;2023-01-29T08:04:46;95134.16;;;2.28;100.00
11878;BME280;5998;42.676;23.268;2023-01-29T08:07:12;95143.28;;;2.17;100.00
11878;BME280;5998;42.676;23.268;2023-01-29T08:09:40;95148.91;;;2.16;100.00
11878;BME280;5998;42.676;23.268;2023-01-29T08:12:07;95144.28;;;1.93;100.00
11878;BME280;5998;42.676;23.268;2023-01-29T08:14:34;95151.69;;;1.96;100.00
11878;BME280;5998;42.676;23.268;2023-01-29T08:17:01;95151.03;;;1.80;100.00
11878;BME280;5998;42.676;23.268;2023-01-29T08:19:27;95152.03;;;1.89;100.00
11878;BME280;5998;42.676;23.268;2023-01-29T08:21:54;95143.34;;;1.78;100.00
11878;BME280;5998;42.676;23.268;2023-01-29T08:24:21;95149.88;;;1.91;100.00
11878;BME280;5998;42.676;23.268;2023-01-29T08:26:49;95148.97;;;1.72;100.00
11878;BME280;5998;42.676;23.268;2023-01-29T08:29:15;95156.94;;;1.72;100.00
11878;BME280;5998;42.676;23.268;2023-01-29T08:31:42;95167.63;;;1.62;100.00
11878;BME280;5998;42.676;23.268;2023-01-29T08:34:09;95162.31;;;1.57;100.00
11878;BME280;5998;42.676;23.268;2023-01-29T08:36:36;95165.72;;;1.62;100.00
11878;BME280;5998;42.676;23.268;2023-01-29T08:39:02;95162.03;;;1.63;100.00
11878;BME280;5998;42.676;23.268;2023-01-29T08:41:29;95164.34;;;1.75;100.00
11878;BME280;5998;42.676;23.268;2023-01-29T08:43:57;95164.78;;;1.87;100.00
11878;BME280;5998;42.676;23.268;2023-01-29T08:46:25;95162.53;;;1.65;100.00
11878;BME280;5998;42.676;23.268;2023-01-29T08:48:52;95172.97;;;1.52;100.00
11878;BME280;5998;42.676;23.268;2023-01-29T08:51:19;95181.25;;;1.35;100.00
11878;BME280;5998;42.676;23.268;2023-01-29T08:53:46;95180.78;;;1.28;100.00
11878;BME280;5998;42.676;23.268;2023-01-29T08:56:13;95191.94;;;1.25;100.00
11878;BME280;5998;42.676;23.268;2023-01-29T08:58:40;95197.53;;;1.24;100.00
11878;BME280;5998;42.676;23.268;2023-01-29T09:01:09;95192.41;;;1.32;100.00
11878;BME280;5998;42.676;23.268;2023-01-29T09:03:37;95197.69;;;1.42;100.00
11878;BME280;5998;42.676;23.268;2023-01-29T09:06:05;95200.91;;;1.39;100.00
11878;BME280;5998;42.676;23.268;2023-01-29T09:08:32;95203.88;;;1.23;100.00
11878;BME280;5998;42.676;23.268;2023-01-29T09:10:59;95196.19;;;1.26;100.00
11878;BME280;5998;42.676;23.268;2023-01-29T09:13:25;95187.88;;;1.43;100.00
11878;BME280;5998;42.676;23.268;2023-01-29T09:15:52;95192.34;;;1.52;100.00
11878;BME280;5998;42.676;23.268;2023-01-29T09:18:20;95193.28;;;1.71;100.00
11878;BME280;5998;42.676;23.268;2023-01-29T09:20:47;95186.59;;;1.79;100.00
11878;BME280;5998;42.676;23.268;2023-01-29T09:23:13;95183.19;;;1.78;100.00
11878;BME280;5998;42.676;23.268;2023-01-29T09:25:42;95183.59;;;1.91;100.00
11878;BME280;5998;42.676;23.268;2023-01-29T09:28:08;95174.34;;;1.88;100.00
11878;BME280;5998;42.676;23.268;2023-01-29T09:30:35;95175.75;;;1.75;100.00
11878;BME280;5998;42.676;23.268;2023-01-29T09:33:03;95175.94;;;1.84;100.00
11878;BME280;5998;42.676;23.268;2023-01-29T09:35:31;95187.84;;;1.92;100.00
11878;BME280;5998;42.676;23.268;2023-01-29T09:37:57;95173.28;;;1.89;100.00
11878;BME280;5998;42.676;23.268;2023-01-29T09:40:26;95175.16;;;1.84;100.00
11878;BME280;5998;42.676;23.268;2023-01-29T09:43:00;95175.25;;;1.68;100.00
11878;BME280;5998;42.676;23.268;2023-01-29T09:45:29;95182.16;;;1.69;100.00
11878;BME280;5998;42.676;23.268;2023-01-29T09:47:57;95176.06;;;1.69;100.00
11878;BME280;5998;42.676;23.268;2023-01-29T09:50:28;95137.22;;;1.39;100.00
11878;BME280;5998;42.676;23.268;2023-01-29T09:53:00;95176.53;;;1.27;100.00
11878;BME280;5998;42.676;23.268;2023-01-29T09:55:30;95176.75;;;1.36;100.00
11878;BME280;5998;42.676;23.268;2023-01-29T09:58:03;95170.47;;;1.22;100.00
11878;BME280;5998;42.676;23.268;2023-01-29T10:00:35;95176.31;;;1.13;100.00
11878;BME280;5998;42.676;23.268;2023-01-29T10:03:16;95176.50;;;1.32;100.00
11878;BME280;5998;42.676;23.268;2023-01-29T10:05:57;95154.09;;;1.09;100.00
11878;BME280;5998;42.676;23.268;2023-01-29T10:08:41;95165.78;;;0.98;100.00
11878;BME280;5998;42.676;23.268;2023-01-29T10:11:19;95163.13;;;1.03;100.00
11878;BME280;5998;42.676;23.268;2023-01-29T10:13:54;95167.03;;;1.16;100.00
11878;BME280;5998;42.676;23.268;2023-01-29T10:16:37;95162.28;;;1.13;100.00
11878;BME280;5998;42.676;23.268;2023-01-29T10:19:17;95165.41;;;1.25;100.00
11878;BME280;5998;42.676;23.268;2023-01-29T10:22:03;95162.28;;;1.08;100.00
11878;BME280;5998;42.676;23.268;2023-01-29T10:24:37;95163.94;;;0.99;100.00
11878;BME280;5998;42.676;23.268;2023-01-29T10:27:12;95154.44;;;0.83;100.00
11878;BME280;5998;42.676;23.268;2023-01-29T10:29:41;95158.59;;;1.04;100.00
11878;BME280;5998;42.676;23.268;2023-01-29T10:32:14;95152.78;;;1.07;100.00
11878;BME280;5998;42.676;23.268;2023-01-29T10:34:45;95150.34;;;1.10;100.00
11878;BME280;5998;42.676;23.268;2023-01-29T10:37:15;95160.63;;;1.27;100.00
11878;BME280;5998;42.676;23.268;2023-01-29T10:39:45;95135.22;;;1.11;100.00
11878;BME280;5998;42.676;23.268;2023-01-29T10:42:21;95136.06;;;1.06;100.00
11878;BME280;5998;42.676;23.268;2023-01-29T10:45:02;95146.63;;;1.11;100.00
11878;BME280;5998;42.676;23.268;2023-01-29T10:50:41;95153.72;;;1.31;100.00
11878;BME280;5998;42.676;23.268;2023-01-29T10:53:29;95146.06;;;1.19;100.00
11878;BME280;5998;42.676;23.268;2023-01-29T10:56:11;95142.44;;;1.00;100.00
11878;BME280;5998;42.676;23.268;2023-01-29T10:58:47;95138.22;;;0.94;100.00
11878;BME280;5998;42.676;23.268;2023-01-29T11:01:15;95141.38;;;0.96;100.00
11878;BME280;5998;42.676;23.268;2023-01-29T11:03:41;95133.47;;;0.91;100.00
11878;BME280;5998;42.676;23.268;2023-01-29T11:06:13;95133.19;;;0.93;100.00
11878;BME280;5998;42.676;23.268;2023-01-29T11:08:54;95129.22;;;0.95;100.00
11878;BME280;5998;42.676;23.268;2023-01-29T11:11:26;95129.38;;;1.14;100.00
11878;BME280;5998;42.676;23.268;2023-01-29T11:13:59;95141.50;;;1.30;100.00
11878;BME280;5998;42.676;23.268;2023-01-29T11:16:39;95125.56;;;1.35;100.00
11878;BME280;5998;42.676;23.268;2023-01-29T11:19:06;95123.75;;;1.31;100.00
11878;BME280;5998;42.676;23.268;2023-01-29T11:21:49;95117.28;;;1.47;100.00
11878;BME280;5998;42.676;23.268;2023-01-29T11:24:16;95114.31;;;1.53;100.00
11878;BME280;5998;42.676;23.268;2023-01-29T11:26:46;95116.69;;;1.55;100.00
11878;BME280;5998;42.676;23.268;2023-01-29T11:29:33;95105.59;;;1.48;100.00
11878;BME280;5998;42.676;23.268;2023-01-29T11:32:04;95114.50;;;1.67;100.00
11878;BME280;5998;42.676;23.268;2023-01-29T11:34:32;95101.34;;;1.47;100.00
11878;BME280;5998;42.676;23.268;2023-01-29T11:37:00;95100.88;;;1.40;100.00
11878;BME280;5998;42.676;23.268;2023-01-29T11:39:28;95095.72;;;1.58;100.00
11878;BME280;5998;42.676;23.268;2023-01-29T11:41:57;95089.72;;;1.43;100.00
11878;BME280;5998;42.676;23.268;2023-01-29T11:44:30;95078.81;;;1.44;100.00
11878;BME280;5998;42.676;23.268;2023-01-29T11:47:09;95083.03;;;1.50;100.00
11878;BME280;5998;42.676;23.268;2023-01-29T11:49:37;95081.88;;;1.61;100.00
11878;BME280;5998;42.676;23.268;2023-01-29T11:52:06;95079.75;;;1.63;100.00
11878;BME280;5998;42.676;23.268;2023-01-29T11:54:37;95076.81;;;1.65;100.00
11878;BME280;5998;42.676;23.268;2023-01-29T11:57:21;95079.78;;;1.58;100.00
11878;BME280;5998;42.676;23.268;2023-01-29T11:59:49;95082.59;;;1.72;100.00
11878;BME280;5998;42.676;23.268;2023-01-29T12:02:28;95074.59;;;1.77;100.00
11878;BME280;5998;42.676;23.268;2023-01-29T12:04:58;95075.59;;;1.86;100.00
11878;BME280;5998;42.676;23.268;2023-01-29T12:07:26;95063.06;;;1.92;100.00
11878;BME280;5998;42.676;23.268;2023-01-29T12:09:54;95066.47;;;1.63;100.00
11878;BME280;5998;42.676;23.268;2023-01-29T12:12:31;95066.06;;;1.80;100.00
11878;BME280;5998;42.676;23.268;2023-01-29T12:17:55;95063.72;;;1.73;100.00
11878;BME280;5998;42.676;23.268;2023-01-29T12:20:29;95069.84;;;1.74;100.00
11878;BME280;5998;42.676;23.268;2023-01-29T12:23:03;95073.50;;;1.44;100.00
11878;BME280;5998;42.676;23.268;2023-01-29T12:25:43;95073.47;;;1.49;100.00
11878;BME280;5998;42.676;23.268;2023-01-29T12:28:26;95062.84;;;1.49;100.00
11878;BME280;5998;42.676;23.268;2023-01-29T12:31:07;95078.84;;;1.39;100.00
11878;BME280;5998;42.676;23.268;2023-01-29T12:33:42;95080.03;;;1.57;100.00
11878;BME280;5998;42.676;23.268;2023-01-29T12:36:17;95053.16;;;1.68;100.00
11878;BME280;5998;42.676;23.268;2023-01-29T12:38:47;95066.22;;;1.94;100.00
11878;BME280;5998;42.676;23.268;2023-01-29T12:41:33;95072.34;;;1.94;100.00
11878;BME280;5998;42.676;23.268;2023-01-29T12:44:10;95090.13;;;1.94;100.00
11878;BME280;5998;42.676;23.268;2023-01-29T12:46:40;95074.91;;;1.70;100.00
11878;BME280;5998;42.676;23.268;2023-01-29T12:49:12;95040.66;;;1.35;100.00
11878;BME280;5998;42.676;23.268;2023-01-29T12:51:48;95070.44;;;1.66;100.00
11878;BME280;5998;42.676;23.268;2023-01-29T12:54:21;95074.16;;;1.65;100.00
11878;BME280;5998;42.676;23.268;2023-01-29T12:56:50;95070.97;;;1.63;100.00
11878;BME280;5998;42.676;23.268;2023-01-29T12:59:26;95070.38;;;1.71;100.00
11878;BME280;5998;42.676;23.268;2023-01-29T13:01:57;95060.84;;;1.70;100.00
11878;BME280;5998;42.676;23.268;2023-01-29T13:04:31;95078.66;;;1.69;100.00
11878;BME280;5998;42.676;23.268;2023-01-29T13:07:08;95073.03;;;1.71;100.00
11878;BME280;5998;42.676;23.268;2023-01-29T13:09:40;95060.44;;;1.53;100.00
11878;BME280;5998;42.676;23.268;2023-01-29T13:12:12;95069.47;;;1.52;100.00
11878;BME280;5998;42.676;23.268;2023-01-29T13:14:46;95045.94;;;1.40;100.00
11878;BME280;5998;42.676;23.268;2023-01-29T13:17:18;95068.53;;;1.33;100.00
11878;BME280;5998;42.676;23.268;2023-01-29T13:19:49;95075.66;;;1.42;100.00
11878;BME280;5998;42.676;23.268;2023-01-29T13:22:21;95064.53;;;1.35;100.00
11878;BME280;5998;42.676;23.268;2023-01-29T13:24:49;95068.03;;;1.31;100.00
11878;BME280;5998;42.676;23.268;2023-01-29T13:27:21;95071.19;;;1.33;100.00